createdAt,value
2022-10-21T00:00:31.520Z,5.30
2022-10-21T00:02:58.808Z,5.17
2022-10-21T00:05:25.837Z,5.13
2022-10-21T00:07:52.900Z,5.30
2022-10-21T00:10:20.156Z,5.27
2022-10-21T00:12:47.190Z,5.40
2022-10-21T00:15:14.322Z,4.90
2022-10-21T00:17:43.086Z,5.30
2022-10-21T00:20:11.415Z,5.10
2022-10-21T00:22:39.329Z,5.07
2022-10-21T00:25:06.904Z,4.90
2022-10-21T00:27:34.158Z,5.03
2022-10-21T00:30:01.211Z,5.50
2022-10-21T00:32:28.251Z,5.20
2022-10-21T00:34:55.333Z,5.17
2022-10-21T00:37:22.482Z,5.17
2022-10-21T00:39:49.570Z,5.17
2022-10-21T00:42:18.490Z,5.10
2022-10-21T00:45:02.013Z,4.50
2022-10-21T00:47:29.329Z,5.10
2022-10-21T00:49:59.145Z,5.13
2022-10-21T00:52:26.572Z,5.30
2022-10-21T00:54:55.848Z,5.30
2022-10-21T00:57:24.373Z,5.60
2022-10-21T00:59:53.460Z,5.13
2022-10-21T01:02:20.471Z,5.20
2022-10-21T01:04:48.465Z,4.77
2022-10-21T01:07:15.509Z,5.00
2022-10-21T01:09:42.562Z,5.20
2022-10-21T01:12:14.757Z,5.20
2022-10-21T01:14:47.433Z,5.17
2022-10-21T01:17:26.455Z,5.07
2022-10-21T01:20:07.277Z,5.33
2022-10-21T01:22:46.248Z,5.30
2022-10-21T01:25:25.146Z,5.27
2022-10-21T01:28:24.460Z,5.10
2022-10-21T01:30:55.947Z,5.10
2022-10-21T01:33:35.413Z,5.23
2022-10-21T01:36:15.455Z,4.90
2022-10-21T01:38:51.628Z,5.10
2022-10-21T01:41:37.220Z,5.27
2022-10-21T01:44:07.295Z,4.90
2022-10-21T01:46:46.013Z,5.03
2022-10-21T01:49:18.961Z,5.40
2022-10-21T01:51:46.108Z,5.10
2022-10-21T01:54:16.807Z,5.30
2022-10-21T01:56:44.709Z,4.80
2022-10-21T01:59:12.104Z,5.03
2022-10-21T02:01:40.051Z,5.30
2022-10-21T02:04:09.074Z,5.03
2022-10-21T02:06:36.179Z,4.63
2022-10-21T02:09:03.390Z,5.00
2022-10-21T02:11:30.878Z,4.87
2022-10-21T02:14:01.987Z,4.83
2022-10-21T02:16:31.146Z,4.93
2022-10-21T02:19:00.104Z,5.27
2022-10-21T02:21:28.472Z,4.77
2022-10-21T02:24:02.220Z,4.80
2022-10-21T02:26:29.395Z,5.03
2022-10-21T02:28:58.096Z,4.97
2022-10-21T02:31:49.548Z,4.90
2022-10-21T02:34:19.395Z,5.40
2022-10-21T02:36:46.414Z,4.97
2022-10-21T02:39:17.367Z,4.83
2022-10-21T02:41:44.865Z,5.43
2022-10-21T02:44:12.020Z,5.50
2022-10-21T02:46:42.010Z,5.60
2022-10-21T02:49:09.181Z,5.27
2022-10-21T02:51:36.729Z,5.17
2022-10-21T02:54:03.813Z,5.40
2022-10-21T02:56:30.969Z,5.57
2022-10-21T02:58:58.019Z,5.70
2022-10-21T03:01:25.138Z,5.57
2022-10-21T03:03:52.222Z,5.63
2022-10-21T03:06:19.359Z,5.53
2022-10-21T03:08:46.448Z,5.27
2022-10-21T03:11:13.531Z,5.93
2022-10-21T03:13:40.628Z,5.47
2022-10-21T03:16:07.984Z,5.80
2022-10-21T03:18:35.054Z,5.70
2022-10-21T03:21:02.109Z,6.10
2022-10-21T03:23:29.160Z,5.83
2022-10-21T03:25:56.163Z,5.87
2022-10-21T03:28:23.305Z,6.27
2022-10-21T03:30:50.321Z,5.67
2022-10-21T03:33:17.338Z,5.93
2022-10-21T03:35:44.577Z,6.07
2022-10-21T03:38:11.643Z,6.50
2022-10-21T03:40:38.695Z,6.40
2022-10-21T03:43:05.774Z,6.50
2022-10-21T03:45:32.834Z,6.13
2022-10-21T03:47:59.949Z,6.47
2022-10-21T03:50:27.055Z,6.37
2022-10-21T03:52:54.240Z,6.13
2022-10-21T03:55:24.042Z,6.03
2022-10-21T03:57:51.177Z,6.70
2022-10-21T04:00:18.233Z,5.90
2022-10-21T04:02:45.307Z,6.13
2022-10-21T04:05:12.660Z,6.40
2022-10-21T04:07:39.920Z,6.57
2022-10-21T04:10:07.533Z,6.37
2022-10-21T04:12:34.642Z,6.23
2022-10-21T04:15:01.718Z,5.90
2022-10-21T04:17:28.761Z,6.63
2022-10-21T04:19:55.841Z,6.73
2022-10-21T04:22:22.851Z,6.20
2022-10-21T04:24:49.900Z,6.17
2022-10-21T04:27:16.908Z,6.10
2022-10-21T04:29:43.940Z,5.87
2022-10-21T04:32:10.979Z,6.07
2022-10-21T04:34:38.087Z,5.70
2022-10-21T04:37:05.408Z,5.93
2022-10-21T04:39:32.685Z,6.10
2022-10-21T04:41:59.712Z,5.77
2022-10-21T04:44:26.788Z,6.37
2022-10-21T04:46:54.297Z,6.33
2022-10-21T04:49:21.411Z,6.23
2022-10-21T04:51:48.423Z,5.67
2022-10-21T04:54:15.529Z,6.13
2022-10-21T04:56:42.785Z,5.83
2022-10-21T04:59:10.079Z,6.43
2022-10-21T05:01:37.100Z,6.17
2022-10-21T05:04:04.257Z,6.13
2022-10-21T05:06:31.327Z,5.93
2022-10-21T05:08:58.497Z,6.37
2022-10-21T05:11:25.650Z,6.63
2022-10-21T05:13:52.815Z,5.93
2022-10-21T05:16:19.894Z,6.10
2022-10-21T05:18:47.056Z,6.70
2022-10-21T05:21:14.094Z,6.53
2022-10-21T05:23:41.176Z,5.83
2022-10-21T05:26:08.300Z,5.60
2022-10-21T05:28:35.366Z,6.10
2022-10-21T05:31:02.569Z,6.00
2022-10-21T05:33:29.634Z,6.13
2022-10-21T05:36:01.761Z,6.17
2022-10-21T05:38:29.422Z,6.23
2022-10-21T05:40:56.632Z,6.40
2022-10-21T05:43:24.053Z,6.13
2022-10-21T05:45:51.170Z,6.37
2022-10-21T05:48:18.323Z,6.47
2022-10-21T05:50:46.131Z,6.67
2022-10-21T05:53:13.858Z,6.73
2022-10-21T05:55:40.978Z,6.47
2022-10-21T05:58:08.054Z,6.33
2022-10-21T06:00:35.352Z,6.53
2022-10-21T06:03:02.519Z,6.60
2022-10-21T06:05:29.587Z,7.07
2022-10-21T06:07:56.629Z,6.43
2022-10-21T06:10:28.183Z,7.30
2022-10-21T06:12:56.205Z,7.03
2022-10-21T06:15:23.334Z,6.43
2022-10-21T06:17:51.897Z,6.77
2022-10-21T06:20:19.071Z,5.93
2022-10-21T06:22:46.116Z,6.90
2022-10-21T06:25:13.294Z,6.63
2022-10-21T06:27:40.828Z,6.63
2022-10-21T06:30:08.397Z,6.43
2022-10-21T06:32:35.825Z,6.33
2022-10-21T06:35:03.055Z,6.30
2022-10-21T06:37:30.283Z,6.13
2022-10-21T06:39:57.293Z,6.60
2022-10-21T06:42:24.328Z,6.47
2022-10-21T06:44:51.683Z,6.40
2022-10-21T06:47:19.150Z,6.40
2022-10-21T06:49:46.219Z,6.50
2022-10-21T06:52:13.391Z,6.37
2022-10-21T06:54:40.456Z,6.27
2022-10-21T06:57:07.495Z,6.50
2022-10-21T06:59:34.505Z,6.10
2022-10-21T07:02:01.753Z,6.23
2022-10-21T07:04:29.446Z,6.50
2022-10-21T07:06:56.491Z,6.73
2022-10-21T07:09:23.572Z,6.17
2022-10-21T07:11:50.688Z,6.20
2022-10-21T07:14:17.826Z,6.17
2022-10-21T07:16:44.928Z,6.30
2022-10-21T07:19:11.955Z,6.17
2022-10-21T07:21:39.109Z,5.73
2022-10-21T07:24:06.508Z,5.97
2022-10-21T07:26:34.711Z,5.77
2022-10-21T07:29:02.121Z,5.77
2022-10-21T07:31:31.360Z,5.77
2022-10-21T07:33:59.579Z,6.00
2022-10-21T07:36:27.967Z,6.40
2022-10-21T07:38:56.257Z,6.10
2022-10-21T07:41:24.379Z,5.80
2022-10-21T07:43:52.155Z,5.30
2022-10-21T07:46:20.146Z,5.93
2022-10-21T07:48:47.237Z,5.73
2022-10-21T07:51:15.614Z,5.70
2022-10-21T07:53:42.685Z,5.60
2022-10-21T07:56:20.238Z,5.50
2022-10-21T07:58:47.508Z,5.53
2022-10-21T08:01:15.053Z,6.03
2022-10-21T08:03:42.152Z,5.80
2022-10-21T08:06:09.840Z,5.70
2022-10-21T08:08:37.447Z,5.47
2022-10-21T08:11:05.076Z,6.20
2022-10-21T08:13:32.413Z,6.07
2022-10-21T08:15:59.680Z,6.37
2022-10-21T08:18:26.812Z,6.37
2022-10-21T08:20:53.849Z,6.43
2022-10-21T08:23:22.678Z,6.47
2022-10-21T08:25:50.694Z,5.90
2022-10-21T08:28:18.362Z,6.10
2022-10-21T08:30:45.708Z,6.37
2022-10-21T08:33:13.401Z,5.97
2022-10-21T08:35:40.555Z,6.20
2022-10-21T08:38:08.268Z,5.97
2022-10-21T08:40:38.459Z,6.10
2022-10-21T08:43:18.138Z,6.17
2022-10-21T08:45:54.902Z,5.87
2022-10-21T08:48:26.997Z,6.13
2022-10-21T08:50:56.207Z,6.17
2022-10-21T08:53:31.419Z,6.43
2022-10-21T08:56:02.091Z,6.00
2022-10-21T08:58:29.177Z,6.33
2022-10-21T09:01:02.018Z,5.83
2022-10-21T09:03:41.441Z,6.20
2022-10-21T09:06:14.830Z,6.30
2022-10-21T09:08:47.620Z,5.87
2022-10-21T09:11:20.702Z,5.57
2022-10-21T09:13:51.319Z,5.83
2022-10-21T09:16:24.702Z,5.87
2022-10-21T09:19:00.943Z,5.73
2022-10-21T09:21:36.838Z,5.83
2022-10-21T09:24:14.516Z,5.90
2022-10-21T09:26:43.100Z,6.07
2022-10-21T09:29:16.020Z,5.80
2022-10-21T09:31:43.989Z,5.80
2022-10-21T09:34:21.386Z,5.77
2022-10-21T09:36:48.901Z,5.67
2022-10-21T09:39:30.946Z,5.83
2022-10-21T09:42:00.171Z,6.00
2022-10-21T09:44:30.914Z,6.27
2022-10-21T09:46:57.951Z,6.37
2022-10-21T09:50:01.694Z,6.17
2022-10-21T09:52:17.173Z,6.10
2022-10-21T09:54:45.104Z,5.77
2022-10-21T09:57:32.461Z,6.17
2022-10-21T10:00:00.919Z,6.03
2022-10-21T10:02:30.972Z,5.80
2022-10-21T10:04:58.251Z,6.27
2022-10-21T10:07:30.747Z,6.00
2022-10-21T10:09:57.787Z,5.93
2022-10-21T10:12:26.118Z,5.80
2022-10-21T10:14:53.205Z,5.93
2022-10-21T10:17:29.073Z,5.50
2022-10-21T10:20:05.614Z,5.57
2022-10-21T10:22:41.752Z,5.70
2022-10-21T10:25:18.163Z,5.67
2022-10-21T10:27:51.112Z,5.17
2022-10-21T10:30:18.821Z,5.57
2022-10-21T10:32:46.625Z,5.40
2022-10-21T10:35:34.435Z,5.20
2022-10-21T10:38:02.562Z,5.23
2022-10-21T10:40:32.424Z,5.70
2022-10-21T10:43:02.345Z,5.20
2022-10-21T10:45:29.815Z,5.93
2022-10-21T10:48:03.193Z,5.43
2022-10-21T10:50:50.556Z,6.03
2022-10-21T10:53:23.823Z,5.83
2022-10-21T10:56:05.207Z,5.80
2022-10-21T10:58:33.758Z,6.07
2022-10-21T11:01:03.003Z,5.70
2022-10-21T11:03:39.180Z,5.80
2022-10-21T11:06:14.143Z,5.70
2022-10-21T11:08:59.638Z,6.10
2022-10-21T11:11:29.163Z,6.33
2022-10-21T11:13:57.654Z,6.67
2022-10-21T11:16:27.667Z,6.57
2022-10-21T11:19:08.836Z,7.33
2022-10-21T11:21:55.347Z,7.03
2022-10-21T11:24:41.317Z,7.40
2022-10-21T11:27:08.396Z,7.37
2022-10-21T11:29:44.363Z,7.20
2022-10-21T11:32:17.286Z,7.43
2022-10-21T11:34:44.302Z,6.93
2022-10-21T11:37:19.230Z,7.10
2022-10-21T11:39:59.670Z,8.17
2022-10-21T11:42:26.763Z,7.00
2022-10-21T11:44:56.653Z,7.80
2022-10-21T11:47:32.666Z,8.10
2022-10-21T11:49:59.883Z,7.67
2022-10-21T11:52:42.540Z,7.47
2022-10-21T11:55:15.930Z,8.00
2022-10-21T11:57:50.564Z,7.70
2022-10-21T12:00:25.024Z,8.23
2022-10-21T12:02:55.098Z,7.63
2022-10-21T12:05:42.475Z,8.83
2022-10-21T12:08:09.523Z,8.20
2022-10-21T12:10:36.548Z,9.40
2022-10-21T12:13:07.308Z,9.33
2022-10-21T12:15:42.644Z,8.80
2022-10-21T12:18:22.259Z,8.17
2022-10-21T12:20:52.028Z,8.40
2022-10-21T12:23:21.242Z,8.70
2022-10-21T12:26:02.681Z,7.77
2022-10-21T12:28:32.722Z,8.00
2022-10-21T12:31:04.565Z,7.50
2022-10-21T12:33:34.885Z,7.80
2022-10-21T12:36:17.291Z,7.37
2022-10-21T12:38:47.962Z,7.80
2022-10-21T12:41:26.981Z,8.50
2022-10-21T12:43:54.052Z,7.93
2022-10-21T12:46:25.208Z,8.23
2022-10-21T12:48:52.546Z,8.60
2022-10-21T12:51:22.352Z,8.83
2022-10-21T12:56:29.311Z,10.07
2022-10-21T12:59:01.646Z,11.03
2022-10-21T13:01:34.608Z,10.60
2022-10-21T13:04:01.876Z,10.73
2022-10-21T13:06:47.405Z,11.53
2022-10-21T13:09:53.731Z,12.73
2022-10-21T13:12:23.468Z,13.40
2022-10-21T13:14:50.480Z,13.40
2022-10-21T13:17:23.432Z,13.43
2022-10-21T13:19:50.416Z,12.53
2022-10-21T13:22:22.802Z,13.37
2022-10-21T13:24:50.597Z,13.70
2022-10-21T13:27:26.079Z,14.10
2022-10-21T13:29:53.575Z,13.87
2022-10-21T13:32:37.494Z,14.50
2022-10-21T13:35:19.362Z,14.83
2022-10-21T13:37:55.343Z,14.47
2022-10-21T13:40:23.891Z,14.33
2022-10-21T13:42:56.475Z,13.67
2022-10-21T13:45:23.564Z,14.00
2022-10-21T13:48:04.205Z,13.73
2022-10-21T13:50:33.569Z,14.07
2022-10-21T13:53:03.436Z,14.20
2022-10-21T13:55:30.526Z,13.77
2022-10-21T13:57:57.989Z,13.83
2022-10-21T14:00:31.113Z,13.40
2022-10-21T14:03:02.796Z,12.70
2022-10-21T14:05:39.280Z,12.77
2022-10-21T14:08:08.467Z,12.90
2022-10-21T14:10:36.510Z,12.67
2022-10-21T14:13:05.005Z,12.00
2022-10-21T14:15:39.103Z,11.67
2022-10-21T14:18:06.736Z,12.13
2022-10-21T14:20:35.413Z,11.50
2022-10-21T14:23:06.566Z,11.40
2022-10-21T14:25:33.799Z,11.20
2022-10-21T14:28:02.078Z,11.83
2022-10-21T14:30:31.655Z,11.07
2022-10-21T14:32:59.496Z,10.10
2022-10-21T14:35:28.292Z,10.63
2022-10-21T14:37:57.222Z,9.93
2022-10-21T14:40:26.406Z,10.30
2022-10-21T14:42:55.046Z,10.13
2022-10-21T14:45:25.946Z,10.47
2022-10-21T14:47:56.110Z,10.00
2022-10-21T14:50:24.450Z,9.33
2022-10-21T14:52:52.822Z,10.10
2022-10-21T14:55:28.956Z,9.40
2022-10-21T14:58:10.194Z,9.53
2022-10-21T15:00:41.670Z,9.20
2022-10-21T15:03:12.882Z,9.27
2022-10-21T15:05:45.181Z,9.30
2022-10-21T15:08:21.126Z,9.20
2022-10-21T15:11:12.208Z,9.73
2022-10-21T15:13:39.288Z,9.57
2022-10-21T15:16:18.964Z,9.43
2022-10-21T15:18:48.885Z,9.50
2022-10-21T15:21:25.472Z,9.13
2022-10-21T15:23:54.277Z,9.33
2022-10-21T15:26:25.923Z,9.03
2022-10-21T15:28:53.732Z,9.30
2022-10-21T15:31:23.096Z,9.60
2022-10-21T15:33:50.753Z,8.67
2022-10-21T15:36:19.162Z,9.40
2022-10-21T15:38:46.903Z,8.60
2022-10-21T15:41:14.779Z,8.47
2022-10-21T15:43:42.402Z,7.97
2022-10-21T15:46:11.583Z,8.40
2022-10-21T15:48:38.663Z,8.00
2022-10-21T15:53:37.023Z,7.27
2022-10-21T15:56:04.846Z,7.00
2022-10-21T15:58:32.095Z,6.10
2022-10-21T16:00:59.351Z,6.80
2022-10-21T16:03:28.076Z,6.20
2022-10-21T16:05:55.090Z,6.07
2022-10-21T16:08:22.124Z,6.20
2022-10-21T16:10:49.942Z,6.23
2022-10-21T16:13:17.374Z,6.07
2022-10-21T16:15:44.408Z,6.33
2022-10-21T16:18:13.012Z,6.07
2022-10-21T16:20:40.618Z,6.00
2022-10-21T16:23:07.879Z,6.37
2022-10-21T16:25:35.266Z,6.47
2022-10-21T16:28:02.651Z,6.87
2022-10-21T16:30:33.072Z,7.30
2022-10-21T16:33:00.206Z,8.20
2022-10-21T16:35:27.298Z,7.97
2022-10-21T16:37:56.081Z,8.00
2022-10-21T16:40:27.853Z,8.60
2022-10-21T16:42:55.408Z,8.67
2022-10-21T16:45:23.423Z,8.70
2022-10-21T16:47:52.633Z,9.23
2022-10-21T16:50:40.409Z,8.90
2022-10-21T16:53:08.692Z,8.27
2022-10-21T16:55:35.754Z,8.97
2022-10-21T16:58:02.781Z,7.77
2022-10-21T17:00:29.823Z,8.23
2022-10-21T17:02:58.827Z,9.03
2022-10-21T17:05:26.088Z,8.87
2022-10-21T17:07:54.221Z,8.57
2022-10-21T17:10:21.313Z,8.43
2022-10-21T17:12:48.340Z,8.60
2022-10-21T17:15:16.075Z,8.00
2022-10-21T17:17:43.179Z,8.63
2022-10-21T17:20:10.517Z,8.37
2022-10-21T17:22:37.542Z,8.20
2022-10-21T17:25:04.751Z,8.17
2022-10-21T17:27:31.764Z,7.70
2022-10-21T17:29:58.798Z,7.00
2022-10-21T17:32:25.927Z,7.10
2022-10-21T17:34:52.983Z,7.67
2022-10-21T17:37:20.357Z,7.20
2022-10-21T17:39:47.421Z,7.27
2022-10-21T17:42:15.346Z,7.87
2022-10-21T17:44:42.384Z,7.27
2022-10-21T17:47:09.433Z,7.13
2022-10-21T17:49:36.444Z,6.57
2022-10-21T17:52:03.506Z,7.67
2022-10-21T17:54:32.680Z,7.23
2022-10-21T17:57:03.917Z,7.33
2022-10-21T17:59:32.674Z,7.63
2022-10-21T18:02:00.067Z,8.03
2022-10-21T18:04:27.565Z,7.73
2022-10-21T18:06:54.800Z,8.27
2022-10-21T18:09:21.896Z,8.10
2022-10-21T18:11:49.026Z,8.83
2022-10-21T18:14:16.137Z,8.73
2022-10-21T18:16:43.262Z,8.77
2022-10-21T18:19:10.387Z,8.67
2022-10-21T18:21:37.486Z,8.93
2022-10-21T18:24:07.456Z,8.87
2022-10-21T18:26:37.272Z,8.87
2022-10-21T18:29:05.422Z,9.53
2022-10-21T18:31:33.706Z,8.70
2022-10-21T18:34:01.574Z,9.17
2022-10-21T18:36:28.742Z,9.57
2022-10-21T18:38:56.049Z,9.43
2022-10-21T18:41:23.194Z,9.50
2022-10-21T18:43:51.583Z,8.87
2022-10-21T18:46:19.422Z,9.43
2022-10-21T18:48:46.726Z,9.23
2022-10-21T18:51:18.855Z,9.53
2022-10-21T18:53:49.888Z,9.90
2022-10-21T18:56:19.582Z,9.63
2022-10-21T18:58:46.718Z,9.73
2022-10-21T19:01:16.795Z,10.07
2022-10-21T19:03:44.632Z,9.37
2022-10-21T19:06:15.876Z,9.40
2022-10-21T19:08:43.185Z,8.70
2022-10-21T19:11:10.243Z,8.97
2022-10-21T19:13:37.716Z,9.17
2022-10-21T19:16:04.848Z,8.87
2022-10-21T19:18:31.903Z,8.77
2022-10-21T19:20:58.925Z,9.50
2022-10-21T19:23:27.667Z,8.60
2022-10-21T19:25:54.729Z,8.90
2022-10-21T19:28:21.794Z,8.50
2022-10-21T19:30:48.805Z,9.00
2022-10-21T19:33:16.123Z,8.43
2022-10-21T19:35:43.144Z,8.37
2022-10-21T19:38:11.727Z,8.93
2022-10-21T19:43:19.651Z,9.17
2022-10-21T19:45:46.675Z,9.00
2022-10-21T19:48:15.944Z,8.73
2022-10-21T19:50:49.761Z,9.03
2022-10-21T19:53:17.565Z,9.30
2022-10-21T19:55:44.662Z,8.97
2022-10-21T19:58:11.691Z,8.53
2022-10-21T20:00:38.748Z,8.67
2022-10-21T20:03:05.826Z,8.40
2022-10-21T20:05:36.765Z,9.10
2022-10-21T20:08:03.851Z,8.73
2022-10-21T20:10:32.307Z,8.77
2022-10-21T20:12:59.596Z,8.47
2022-10-21T20:15:26.901Z,8.07
2022-10-21T20:17:53.924Z,8.17
2022-10-21T20:20:21.368Z,8.67
2022-10-21T20:22:48.385Z,9.37
2022-10-21T20:25:15.473Z,8.73
2022-10-21T20:27:42.561Z,9.33
2022-10-21T20:30:09.798Z,8.37
2022-10-21T20:32:36.821Z,9.10
2022-10-21T20:35:04.289Z,9.50
2022-10-21T20:37:31.381Z,9.10
2022-10-21T20:39:58.455Z,9.10
2022-10-21T20:42:25.488Z,9.07
2022-10-21T20:44:52.503Z,8.77
2022-10-21T20:47:19.583Z,9.63
2022-10-21T20:49:46.584Z,9.40
2022-10-21T20:52:13.836Z,9.43
2022-10-21T20:54:40.865Z,8.87
2022-10-21T20:57:07.898Z,8.73
2022-10-21T20:59:34.929Z,8.77
2022-10-21T21:02:01.962Z,8.50
2022-10-21T21:04:28.985Z,8.00
2022-10-21T21:06:56.095Z,8.40
2022-10-21T21:10:01.170Z,8.57
2022-10-21T21:12:10.298Z,8.83
2022-10-21T21:14:37.377Z,9.20
2022-10-21T21:17:04.994Z,9.07
2022-10-21T21:19:32.059Z,8.57
2022-10-21T21:21:59.148Z,8.70
2022-10-21T21:24:26.233Z,8.67
2022-10-21T21:26:53.250Z,8.73
2022-10-21T21:29:20.342Z,8.73
2022-10-21T21:31:47.352Z,9.43
2022-10-21T21:34:14.406Z,9.63
2022-10-21T21:36:41.487Z,9.80
2022-10-21T21:39:09.283Z,10.23
2022-10-21T21:41:36.434Z,9.77
2022-10-21T21:44:04.601Z,9.77
2022-10-21T21:46:31.647Z,10.57
2022-10-21T21:49:05.457Z,9.77
2022-10-21T21:51:33.176Z,10.97
2022-10-21T21:54:00.251Z,9.77
2022-10-21T21:56:27.995Z,10.20
2022-10-21T21:58:56.031Z,10.80
2022-10-21T22:01:25.261Z,11.40
2022-10-21T22:03:52.832Z,11.00
2022-10-21T22:06:20.870Z,10.80
2022-10-21T22:08:48.837Z,11.30
2022-10-21T22:11:17.292Z,10.93
2022-10-21T22:13:44.610Z,11.30
2022-10-21T22:16:12.464Z,10.93
2022-10-21T22:18:39.878Z,10.50
2022-10-21T22:21:08.081Z,10.73
2022-10-21T22:23:35.762Z,9.93
2022-10-21T22:26:02.944Z,9.77
2022-10-21T22:28:30.043Z,9.93
2022-10-21T22:31:01.917Z,9.83
2022-10-21T22:33:29.440Z,10.67
2022-10-21T22:35:56.541Z,10.77
2022-10-21T22:38:23.868Z,11.33
2022-10-21T22:40:54.824Z,11.50
2022-10-21T22:43:21.957Z,10.40
2022-10-21T22:45:49.003Z,11.07
2022-10-21T22:48:16.401Z,11.80
2022-10-21T22:50:43.512Z,11.73
2022-10-21T22:53:11.076Z,11.10
2022-10-21T22:55:39.231Z,11.10
2022-10-21T22:58:06.959Z,10.57
2022-10-21T23:00:34.250Z,10.27
2022-10-21T23:03:03.206Z,9.73
2022-10-21T23:05:31.972Z,9.57
2022-10-21T23:07:59.021Z,10.60
2022-10-21T23:10:26.068Z,10.27
2022-10-21T23:12:53.108Z,10.53
2022-10-21T23:15:20.153Z,10.53
2022-10-21T23:17:47.180Z,10.27
2022-10-21T23:20:14.196Z,10.47
2022-10-21T23:22:41.557Z,9.80
2022-10-21T23:25:09.092Z,10.13
2022-10-21T23:27:36.130Z,10.47
2022-10-21T23:30:03.173Z,10.70
2022-10-21T23:32:30.252Z,10.30
2022-10-21T23:34:57.271Z,10.03
2022-10-21T23:37:24.374Z,9.83
2022-10-21T23:39:51.390Z,9.67
2022-10-21T23:42:18.437Z,9.53
2022-10-21T23:44:45.523Z,10.37
2022-10-21T23:47:12.570Z,10.10
2022-10-21T23:49:39.655Z,10.17
2022-10-21T23:52:06.695Z,11.07
2022-10-21T23:54:34.141Z,11.17
2022-10-21T23:57:01.179Z,11.20
2022-10-21T23:59:28.265Z,12.20
